Historyczne dane pomiarowe

Dodano dane terminowe – wersja testowa.

Dane z okresu 1951-2019

Wersja bazy: 1.34 [2019-03-16, lista zmian], aktualizacja planowana na 2019-04-15

Dane meteo z obszaru Polski uzyskane na podstawie danych udostępnionych przez Instytut Meteorologii i Gospodarki Wodnej – Państwowy Instytut Badawczy.

 

Wybierz Datę:    

       

TemperaturaWilgotnośćWiatrCiśnienieOpadyŚniegCzas trwania zjawisk
 Stacja t tx tn tng RH VA  wxwx mslp ppp RRR   cm mm wxwxwxwxwxwxwx
1991-03-15 8.8 17.1 3.0- 75.5- 3.3 1.7---- 0.8------------
1991-03-14 7.1 15.5 0.0- 79.0- 3.7 1.7---- 0.0------------
1991-03-13 6.6 11.7 3.1- 95.0- 5.0 0.0---- 0.0------------
1991-03-12 8.9 14.4 5.4- 81.8- 5.0 2.7---- 0.2------------
1991-03-11 5.8 9.2 3.3- 89.8- 8.0 0.0---- 0.1------------
1991-03-10 5.9 10.9 0.4- 79.8- 6.0 0.0---- 0.0------------
1991-03-09 6.0 12.9 1.6- 79.0- 5.7 7.0---- 0.0------------
1991-03-08 4.7 9.9 0.6- 76.3- 3.7 8.3---- 0.0------------
1991-03-07 2.4 6.4 -0.6- 75.3- 4.0 7.0---- 0.0------------
1991-03-06 2.0 6.0 -0.6- 83.3- 8.0 7.0---- 0.0------------
1991-03-05 1.0 7.4 -2.6- 95.3- 5.0 0.7---- 0.0------------
1991-03-04 3.6 9.4 0.4- 88.0- 4.3 2.7---- 0.0------------
1991-03-03 2.2 6.1 -0.3- 84.5- 5.7 1.3---- 0.0------------
1991-03-02 1.0 4.1 -1.3- 80.5- 4.3 6.3---- 0.0------------
1991-03-01 1.0 4.6 -1.6- 81.3- 3.3 4.3---- 0.0------------
1991-02-28 -0.2 1.3 -0.9- 87.8- 8.0 1.3---- 0.0------------
1991-02-27 0.2 2.0 -0.8- 79.3- 6.7 3.7---- 0.0------------
1991-02-26 2.4 7.1 1.2- 91.5- 6.3 3.7---- 0.0------------
1991-02-25 4.7 10.4 0.6- 85.3- 4.7 3.0---- 0.0------------
1991-02-24 5.4 8.9 2.4- 91.8- 5.0 3.0---- 0.0------------
1991-02-23 1.8 5.5 -1.4- 91.5- 5.7 4.3---- 1.1------------
1991-02-22 1.3 5.9 -2.9- 83.0- 4.3 1.3---- 0.0-- 2---------
1991-02-21 0.8 7.5 -3.4- 83.8- 3.3 0.3---- 0.0-- 4---------
1991-02-20 -1.1 4.5 -5.9- 84.3- 5.0 1.7---- 0.0-- 8---------
1991-02-19 -4.4 1.8 -9.9- 77.3- 5.0 1.3---- 0.0-- 10---------
1991-02-18 -0.9 1.6 -3.0- 80.8- 4.0 3.0---- 0.0-- 16---------
1991-02-17 -3.3 -0.9 -7.2- 91.3- 7.7 5.7---- 0.5-- 12---------
1991-02-16 -4.9 -2.9 -7.0- 90.5- 8.0 0.7---- 0.9-- 12---------
1991-02-15 -4.6 -2.4 -6.6- 89.5- 7.3 5.0---- 0.8-- 12---------
1991-02-14 -4.9 -3.7 -5.6- 89.3- 8.0 6.3---- 0.4-- 10---------
1991-02-13 -5.2 -3.2 -7.0- 87.8- 8.0 2.3---- 1.0-- 5---------
1991-02-12 -7.1 -1.4-10.6- 77.5- 5.3 2.0---- 0.0-- 7---------
1991-02-11 -4.6 -1.8 -8.5- 93.5- 6.7 2.3---- 0.2-- 7---------
1991-02-10 -4.2 0.5 -8.2- 95.0- 6.0 4.3---- 0.0-- 7---------
1991-02-09 -3.0 -1.3 -5.1- 97.3- 8.0 1.0---- 0.0-- 8---------
1991-02-08 -6.5 -3.5-12.4- 87.3- 8.0 7.7---- 3.4-- 5---------
1991-02-07 -8.7 -4.6-12.5- 79.0- 8.0 6.3---- 0.0-- 5---------
1991-02-06-10.7 -7.2-14.6- 87.3- 8.0 6.3---- 0.6-- 2---------
1991-02-05-10.6 -6.4-14.6- 79.3- 6.3 7.3---- 0.3------------
1991-02-04 -6.5 -3.1 -9.4- 85.0- 6.3 2.0---- 0.1------------
1991-02-03 -8.6 -3.7-13.4- 68.0- 2.7 1.7---- 0.0------------
1991-02-02-10.9 -5.5-15.8- 57.5- 1.3 5.0---- 0.0------------
1991-02-01-12.5 -8.9-15.9- 59.5- 0.3 2.3---- 0.0------------
1991-01-31-11.2 -7.4-13.2- 61.3- 0.0 3.0---- 0.0------------
1991-01-30 -3.5 0.8 -8.2- 70.3- 2.3 4.3---- 0.0------------
1991-01-29 0.3 1.5 -0.1- 90.8- 7.7 3.7---- 0.1------------
1991-01-28 -0.3 1.6 -1.1- 96.8- 8.0 4.3---- 0.0------------
1991-01-27 1.2 2.4 0.5- 89.0- 8.0 1.7---- 0.0------------
1991-01-26 1.6 2.2 0.5- 94.0- 7.7 4.3---- 0.1------------
1991-01-25 0.4 1.5 -0.5- 92.0- 7.7 5.7---- 0.0------------
1991-01-24 0.4 1.4 -0.6- 98.5- 7.3 2.3---- 0.4------------
1991-01-23 0.3 1.2 -0.1- 93.3- 7.7 4.3---- 0.0------------
1991-01-22 0.5 1.1 0.2- 96.0- 8.0 0.3---- 0.0------------
1991-01-21 -1.3 0.8 -3.8- 87.5- 7.7 3.0---- 2.5------------
1991-01-20 -4.2 0.4 -7.8- 87.5- 5.3 0.7---- 0.0------------
1991-01-19 -2.5 4.2 -8.0- 66.5- 0.0 0.3---- 0.0------------
1991-01-18 -3.8 3.0 -8.7- 77.5- 0.3 0.0---- 0.0------------
1991-01-17 -5.2 0.5 -8.7- 90.5- 0.7 0.0---- 0.0------------
1991-01-16 -4.3 -1.0 -7.3- 89.5- 1.0 0.7---- 0.0------------
1991-01-15 -3.5 -0.5 -7.2- 89.8- 5.0 0.3---- 0.0------------
1540.6 ms

 

Źródłem pochodzenia danych jest Instytut Meteorologii i Gospodarki Wodnej – Państwowy Instytut Badawczy. Dane Instytutu Meteorologii i Gospodarki Wodnej – Państwowego Instytutu Badawczego zostały przetworzone.

Dane źródłowe można odnaleźć na stronie https://dane.imgw.pl